createdAt,value
2019-01-12T00:00:35.891Z,101325.23
2019-01-12T00:03:04.783Z,101327.22
2019-01-12T00:05:33.279Z,101327.22
2019-01-12T00:08:01.719Z,101327.61
2019-01-12T00:10:30.211Z,101328.22
2019-01-12T00:12:58.656Z,101328.22
2019-01-12T00:15:27.077Z,101326.86
2019-01-12T00:17:55.606Z,101326.95
2019-01-12T00:20:24.094Z,101316.94
2019-01-12T00:22:52.518Z,101316.94
2019-01-12T00:25:20.967Z,101311.51
2019-01-12T00:27:49.386Z,101311.51
2019-01-12T00:30:17.901Z,101328.06
2019-01-12T00:32:46.320Z,101321.23
2019-01-12T00:35:14.888Z,101319.42
2019-01-12T00:37:43.345Z,101310.23
2019-01-12T00:40:11.970Z,101312.77
2019-01-12T00:42:40.386Z,101308.16
2019-01-12T00:45:13.665Z,101307.87
2019-01-12T00:47:42.152Z,101307.87
2019-01-12T00:50:13.445Z,101310.78
2019-01-12T00:52:42.009Z,101311.17
2019-01-12T00:55:10.520Z,101310.03
2019-01-12T00:57:38.943Z,101323.43
2019-01-12T01:00:10.560Z,101323.43
2019-01-12T01:02:38.996Z,101320.73
2019-01-12T01:05:08.274Z,101317.05
2019-01-12T01:07:36.761Z,101311.02
2019-01-12T01:10:11.310Z,101311.02
2019-01-12T01:12:39.738Z,101317.43
2019-01-12T01:15:10.217Z,101312.37
2019-01-12T01:17:38.642Z,101317.94
2019-01-12T01:20:09.637Z,101320.09
2019-01-12T01:22:38.132Z,101316.17
2019-01-12T01:25:08.718Z,101316.17
2019-01-12T01:27:37.130Z,101309.23
2019-01-12T01:30:14.443Z,101301.05
2019-01-12T01:32:42.858Z,101303.07
2019-01-12T01:35:11.542Z,101306.91
2019-01-12T01:37:40.036Z,101306.91
2019-01-12T01:40:11.397Z,101304.89
2019-01-12T01:42:39.819Z,101309.99
2019-01-12T01:45:10.443Z,101302.39
2019-01-12T01:47:38.927Z,101306.23
2019-01-12T01:50:09.598Z,101305.56
2019-01-12T01:52:38.041Z,101305.56
2019-01-12T01:55:07.214Z,101299.56
2019-01-12T01:57:35.734Z,101313.34
2019-01-12T02:00:06.846Z,101313.34
2019-01-12T02:02:41.094Z,101313.08
2019-01-12T02:05:09.747Z,101313.08
2019-01-12T02:07:38.192Z,101305.98
2019-01-12T02:10:09.787Z,101297.16
2019-01-12T02:12:38.299Z,101296.06
2019-01-12T02:15:09.867Z,101305.82
2019-01-12T02:17:38.316Z,101305.02
2019-01-12T02:20:07.681Z,101299.02
2019-01-12T02:22:36.129Z,101305.22
2019-01-12T02:25:06.698Z,101305.22
2019-01-12T02:27:35.143Z,101296.52
2019-01-12T02:30:05.978Z,101299.43
2019-01-12T02:32:34.422Z,101299.43
2019-01-12T02:35:02.843Z,101291.37
2019-01-12T02:37:31.288Z,101291.37
2019-01-12T02:39:59.711Z,101285.92
2019-01-12T02:42:28.160Z,101284.06
2019-01-12T02:44:56.576Z,101284.36
2019-01-12T02:47:25.023Z,101285.55
2019-01-12T02:49:53.448Z,101283.39
2019-01-12T02:52:21.896Z,101270.05
2019-01-12T02:54:50.326Z,101270.05
2019-01-12T02:57:18.770Z,101276.09
2019-01-12T02:59:47.195Z,101281.03
2019-01-12T03:02:15.704Z,101274.81
2019-01-12T03:04:44.121Z,101261.50
2019-01-12T03:07:12.578Z,101258.01
2019-01-12T03:09:42.570Z,101258.01
2019-01-12T03:12:11.126Z,101258.01
2019-01-12T03:14:39.546Z,101258.01
2019-01-12T03:17:07.975Z,101263.69
2019-01-12T03:19:36.429Z,101235.27
2019-01-12T03:22:04.911Z,101235.27
2019-01-12T03:24:33.361Z,101243.17
2019-01-12T03:27:01.789Z,101236.41
2019-01-12T03:29:30.231Z,101236.66
2019-01-12T03:31:58.679Z,101236.66
2019-01-12T03:34:27.275Z,101250.89
2019-01-12T03:36:55.703Z,101229.47
2019-01-12T03:39:24.155Z,101241.33
2019-01-12T03:41:52.574Z,101229.97
2019-01-12T03:44:21.016Z,101234.85
2019-01-12T03:46:49.439Z,101230.65
2019-01-12T03:49:17.959Z,101215.55
2019-01-12T03:51:46.384Z,101224.02
2019-01-12T03:54:14.824Z,101223.52
2019-01-12T03:56:43.252Z,101220.84
2019-01-12T03:59:11.703Z,101219.34
2019-01-12T04:01:40.115Z,101219.34
2019-01-12T04:04:08.635Z,101202.71
2019-01-12T04:06:37.049Z,101208.30
2019-01-12T04:09:07.534Z,101206.45
2019-01-12T04:11:35.960Z,101207.52
2019-01-12T04:14:04.948Z,101208.37
2019-01-12T04:16:33.367Z,101208.37
2019-01-12T04:19:01.815Z,101196.96
2019-01-12T04:21:30.238Z,101205.39
2019-01-12T04:23:58.685Z,101205.39
2019-01-12T04:26:27.104Z,101199.11
2019-01-12T04:28:55.553Z,101192.96
2019-01-12T04:31:23.975Z,101192.23
2019-01-12T04:33:52.430Z,101192.23
2019-01-12T04:36:20.858Z,101201.76
2019-01-12T04:38:49.336Z,101197.30
2019-01-12T04:41:17.761Z,101192.23
2019-01-12T04:43:46.185Z,101202.23
2019-01-12T04:46:14.634Z,101202.23
2019-01-12T04:48:43.059Z,101201.89
2019-01-12T04:51:11.579Z,101200.72
2019-01-12T04:53:40.004Z,101197.84
2019-01-12T04:56:08.452Z,101197.84
2019-01-12T04:58:36.881Z,101191.42
2019-01-12T05:01:05.467Z,101192.41
2019-01-12T05:03:33.902Z,101191.22
2019-01-12T05:06:02.342Z,101191.22
2019-01-12T05:08:30.765Z,101184.31
2019-01-12T05:10:59.225Z,101184.68
2019-01-12T05:13:27.697Z,101179.89
2019-01-12T05:15:56.171Z,101178.36
2019-01-12T05:18:24.695Z,101171.95
2019-01-12T05:20:53.105Z,101175.66
2019-01-12T05:23:21.525Z,101175.66
2019-01-12T05:25:50.019Z,101176.88
2019-01-12T05:28:18.439Z,101176.88
2019-01-12T05:30:46.857Z,101166.70
2019-01-12T05:33:15.385Z,101171.30
2019-01-12T05:35:43.811Z,101176.05
2019-01-12T05:38:12.263Z,101176.05
2019-01-12T05:40:40.680Z,101172.87
2019-01-12T05:43:09.134Z,101172.36
2019-01-12T05:45:37.548Z,101167.28
2019-01-12T05:48:06.070Z,101167.28
2019-01-12T05:50:34.496Z,101168.64
2019-01-12T05:53:02.946Z,101162.89
2019-01-12T05:55:31.443Z,101167.77
2019-01-12T05:57:59.891Z,101164.05
2019-01-12T06:00:28.311Z,101164.05
2019-01-12T06:02:56.827Z,101149.67
2019-01-12T06:05:25.251Z,101149.67
2019-01-12T06:07:53.696Z,101163.64
2019-01-12T06:10:22.123Z,101162.33
2019-01-12T06:12:50.573Z,101155.95
2019-01-12T06:15:18.994Z,101162.08
2019-01-12T06:17:47.487Z,101159.88
2019-01-12T06:20:16.386Z,101159.66
2019-01-12T06:22:44.863Z,101159.66
2019-01-12T06:25:13.450Z,101154.89
2019-01-12T06:27:41.870Z,101161.27
2019-01-12T06:30:13.232Z,101154.98
2019-01-12T06:32:41.729Z,101155.16
2019-01-12T06:35:10.173Z,101155.16
2019-01-12T06:37:38.601Z,101139.53
2019-01-12T06:40:10.054Z,101139.53
2019-01-12T06:42:38.481Z,101139.70
2019-01-12T06:45:10.464Z,101139.70
2019-01-12T06:47:38.893Z,101151.05
2019-01-12T06:50:10.279Z,101151.05
2019-01-12T06:52:38.777Z,101152.09
2019-01-12T06:55:09.067Z,101152.11
2019-01-12T06:57:37.560Z,101152.11
2019-01-12T07:00:09.179Z,101133.00
2019-01-12T07:02:37.664Z,101145.56
2019-01-12T07:05:07.350Z,101145.56
2019-01-12T07:07:35.772Z,101138.28
2019-01-12T07:10:07.222Z,101133.23
2019-01-12T07:12:35.636Z,101127.45
2019-01-12T07:15:06.624Z,101127.45
2019-01-12T07:17:35.038Z,101128.48
2019-01-12T07:20:05.885Z,101132.40
2019-01-12T07:22:34.298Z,101128.81
2019-01-12T07:25:02.880Z,101130.36
2019-01-12T07:27:31.294Z,101130.36
2019-01-12T07:29:59.783Z,101126.47
2019-01-12T07:32:28.229Z,101125.98
2019-01-12T07:34:56.644Z,101125.98
2019-01-12T07:37:25.090Z,101121.41
2019-01-12T07:39:53.516Z,101112.59
2019-01-12T07:42:22.170Z,101112.59
2019-01-12T07:44:50.567Z,101117.88
2019-01-12T07:47:19.019Z,101101.29
2019-01-12T07:49:47.520Z,101100.78
2019-01-12T07:52:15.965Z,101105.52
2019-01-12T07:54:44.453Z,101105.52
2019-01-12T07:57:12.906Z,101092.36
2019-01-12T07:59:41.327Z,101094.89
2019-01-12T08:02:09.839Z,101094.89
2019-01-12T08:04:38.257Z,101075.40
2019-01-12T08:07:06.771Z,101067.47
2019-01-12T08:09:35.188Z,101067.47
2019-01-12T08:12:03.872Z,101077.16
2019-01-12T08:14:32.288Z,101084.61
2019-01-12T08:17:00.732Z,101084.61
2019-01-12T08:19:29.157Z,101065.97
2019-01-12T08:21:57.595Z,101065.97
2019-01-12T08:24:26.023Z,101065.83
2019-01-12T08:26:54.525Z,101065.83
2019-01-12T08:29:22.959Z,101062.44
2019-01-12T08:31:51.372Z,101062.44
2019-01-12T08:34:19.818Z,101058.05
2019-01-12T08:36:48.244Z,101060.11
2019-01-12T08:39:16.702Z,101055.53
2019-01-12T08:41:45.120Z,101055.53
2019-01-12T08:44:13.576Z,101053.48
2019-01-12T08:46:41.999Z,101045.34
2019-01-12T08:49:10.451Z,101047.08
2019-01-12T08:51:38.869Z,101038.45
2019-01-12T08:54:07.316Z,101031.69
2019-01-12T08:56:38.460Z,101034.58
2019-01-12T08:59:05.902Z,101034.58
2019-01-12T09:01:34.314Z,101025.43
2019-01-12T09:04:02.826Z,101019.00
2019-01-12T09:06:31.258Z,101021.38
2019-01-12T09:08:59.708Z,101021.38
2019-01-12T09:11:28.194Z,101030.72
2019-01-12T09:13:56.635Z,101030.72
2019-01-12T09:16:25.054Z,101026.80
2019-01-12T09:18:53.499Z,101026.80
2019-01-12T09:21:21.923Z,101015.45
2019-01-12T09:23:50.366Z,101002.78
2019-01-12T09:26:18.858Z,101005.12
2019-01-12T09:28:47.367Z,101005.12
2019-01-12T09:31:15.777Z,101007.33
2019-01-12T09:33:44.256Z,100995.31
2019-01-12T09:36:12.679Z,100994.80
2019-01-12T09:38:41.096Z,101009.38
2019-01-12T09:41:09.614Z,100999.70
2019-01-12T09:43:38.028Z,100999.70
2019-01-12T09:46:06.612Z,100989.20
2019-01-12T09:48:35.030Z,100989.20
2019-01-12T09:51:03.470Z,100989.85
2019-01-12T09:53:31.888Z,100989.85
2019-01-12T09:56:00.330Z,100974.12
2019-01-12T09:58:28.761Z,100975.98
2019-01-12T10:00:57.211Z,100977.70
2019-01-12T10:03:25.623Z,100976.68
2019-01-12T10:05:55.271Z,100962.63
2019-01-12T10:08:23.867Z,100962.63
2019-01-12T10:10:52.314Z,100952.13
2019-01-12T10:13:20.733Z,100944.19
2019-01-12T10:15:49.176Z,100944.19
2019-01-12T10:18:17.668Z,100939.94
2019-01-12T10:20:46.122Z,100921.67
2019-01-12T10:23:14.534Z,100921.67
2019-01-12T10:25:42.981Z,100908.13
2019-01-12T10:28:11.404Z,100909.16
2019-01-12T10:30:39.858Z,100902.02
2019-01-12T10:33:08.274Z,100902.02
2019-01-12T10:35:36.718Z,100896.11
2019-01-12T10:38:05.405Z,100899.34
2019-01-12T10:40:33.859Z,100874.12
2019-01-12T10:43:02.280Z,100871.39
2019-01-12T10:45:30.701Z,100863.08
2019-01-12T10:47:59.225Z,100863.08
2019-01-12T10:50:29.811Z,100856.31
2019-01-12T10:52:58.407Z,100856.31
2019-01-12T10:55:26.956Z,100835.19
2019-01-12T10:57:55.404Z,100835.52
2019-01-12T11:00:26.635Z,100835.52
2019-01-12T11:02:55.086Z,100827.58
2019-01-12T11:05:23.644Z,100822.82
2019-01-12T11:07:52.171Z,100814.55
2019-01-12T11:10:20.766Z,100815.39
2019-01-12T11:12:49.390Z,100806.05
2019-01-12T11:15:20.126Z,100794.70
2019-01-12T11:17:49.019Z,100801.65
2019-01-12T11:20:17.697Z,100779.51
2019-01-12T11:22:46.285Z,100779.51
2019-01-12T11:25:15.852Z,100769.69
2019-01-12T11:27:44.315Z,100775.60
2019-01-12T11:30:15.271Z,100758.87
2019-01-12T11:32:43.854Z,100758.87
2019-01-12T11:35:12.816Z,100746.70
2019-01-12T11:37:41.333Z,100726.09
2019-01-12T11:40:15.554Z,100731.81
2019-01-12T11:42:44.136Z,100735.87
2019-01-12T11:45:12.722Z,100727.58
2019-01-12T11:47:41.161Z,100727.58
2019-01-12T11:50:15.371Z,100711.34
2019-01-12T11:52:44.038Z,100699.52
2019-01-12T11:55:13.816Z,100699.52
2019-01-12T11:57:42.304Z,100690.20
2019-01-12T12:00:22.659Z,100665.86
2019-01-12T12:02:51.254Z,100670.09
2019-01-12T12:05:19.781Z,100664.00
2019-01-12T12:07:48.345Z,100649.80
2019-01-12T12:10:17.539Z,100649.80
2019-01-12T12:12:45.952Z,100649.97
2019-01-12T12:15:19.615Z,100638.13
2019-01-12T12:17:48.116Z,100632.69
2019-01-12T12:20:19.469Z,100627.63
2019-01-12T12:22:47.883Z,100627.63
2019-01-12T12:25:16.325Z,100615.63
2019-01-12T12:27:44.887Z,100604.27
2019-01-12T12:30:16.509Z,100589.23
2019-01-12T12:32:45.065Z,100579.06
2019-01-12T12:35:13.508Z,100572.95
2019-01-12T12:37:41.932Z,100558.92
2019-01-12T12:40:13.486Z,100558.92
2019-01-12T12:42:41.902Z,100551.12
2019-01-12T12:45:13.656Z,100523.25
2019-01-12T12:47:42.150Z,100530.83
2019-01-12T12:50:13.231Z,100530.83
2019-01-12T12:52:41.795Z,100520.01
2019-01-12T12:55:11.889Z,100520.01
2019-01-12T12:57:40.307Z,100509.83
2019-01-12T13:00:17.429Z,100507.13
2019-01-12T13:02:45.986Z,100489.04
2019-01-12T13:05:14.570Z,100492.91
2019-01-12T13:07:43.059Z,100481.25
2019-01-12T13:10:19.774Z,100473.75
2019-01-12T13:12:48.372Z,100470.00
2019-01-12T13:15:17.061Z,100463.59
2019-01-12T13:17:45.549Z,100446.19
2019-01-12T13:20:16.690Z,100453.41
2019-01-12T13:22:45.487Z,100442.58
2019-01-12T13:25:14.793Z,100442.58
2019-01-12T13:27:43.303Z,100438.71
2019-01-12T13:30:17.348Z,100439.88
2019-01-12T13:32:45.869Z,100439.88
2019-01-12T13:35:14.423Z,100427.33
2019-01-12T13:37:42.938Z,100422.08
2019-01-12T13:40:14.359Z,100422.08
2019-01-12T13:42:42.817Z,100405.99
2019-01-12T13:45:14.217Z,100402.58
2019-01-12T13:47:42.702Z,100406.59
2019-01-12T13:50:13.766Z,100406.59
2019-01-12T13:52:42.288Z,100388.20
2019-01-12T13:55:12.841Z,100388.20
2019-01-12T13:57:47.365Z,100392.06
2019-01-12T14:00:23.877Z,100396.08
2019-01-12T14:02:52.462Z,100388.44
2019-01-12T14:05:20.954Z,100388.44
2019-01-12T14:07:55.844Z,100391.34
2019-01-12T14:10:20.198Z,100385.28
2019-01-12T14:12:48.713Z,100383.54
2019-01-12T14:15:18.964Z,100377.48
2019-01-12T14:17:48.332Z,100363.94
2019-01-12T14:20:25.347Z,100363.94
2019-01-12T14:22:53.861Z,100360.00
2019-01-12T14:25:22.346Z,100360.00
2019-01-12T14:27:54.847Z,100344.95
2019-01-12T14:30:21.354Z,100344.95
2019-01-12T14:32:49.966Z,100344.58
2019-01-12T14:35:19.311Z,100344.58
2019-01-12T14:37:48.094Z,100326.50
2019-01-12T14:40:20.888Z,100329.97
2019-01-12T14:42:49.401Z,100327.92
2019-01-12T14:45:20.439Z,100336.05
2019-01-12T14:47:48.878Z,100336.05
2019-01-12T14:50:17.371Z,100316.47
2019-01-12T14:52:45.952Z,100328.92
2019-01-12T14:55:17.008Z,100323.81
2019-01-12T14:57:45.524Z,100323.81
2019-01-12T15:00:16.612Z,100319.49
2019-01-12T15:02:45.130Z,100319.49
2019-01-12T15:05:18.309Z,100327.56
2019-01-12T15:07:47.012Z,100322.51
2019-01-12T15:10:17.556Z,100336.80
2019-01-12T15:12:46.244Z,100315.22
2019-01-12T15:15:16.811Z,100338.20
2019-01-12T15:17:45.391Z,100338.20
2019-01-12T15:20:18.858Z,100318.72
2019-01-12T15:22:47.461Z,100318.72
2019-01-12T15:25:16.056Z,100307.56
2019-01-12T15:27:44.566Z,100319.55
2019-01-12T15:30:21.112Z,100316.53
2019-01-12T15:32:49.566Z,100313.50
2019-01-12T15:35:18.826Z,100307.36
2019-01-12T15:37:47.347Z,100302.98
2019-01-12T15:40:20.501Z,100303.55
2019-01-12T15:42:49.018Z,100307.39
2019-01-12T15:45:20.342Z,100291.12
2019-01-12T15:47:48.828Z,100291.12
2019-01-12T15:50:19.313Z,100288.69
2019-01-12T15:52:47.795Z,100279.69
2019-01-12T15:55:16.384Z,100279.69
2019-01-12T15:57:44.814Z,100277.97
2019-01-12T16:00:16.466Z,100272.91
2019-01-12T16:02:44.886Z,100266.45
2019-01-12T16:05:13.070Z,100264.37
2019-01-12T16:07:41.488Z,100269.38
2019-01-12T16:10:11.769Z,100269.38
2019-01-12T16:12:40.181Z,100270.61
2019-01-12T16:15:20.815Z,100256.08
2019-01-12T16:17:49.234Z,100260.20
2019-01-12T16:20:26.210Z,100264.02
2019-01-12T16:22:54.622Z,100264.02
2019-01-12T16:25:23.134Z,100247.77
2019-01-12T16:27:51.551Z,100235.11
2019-01-12T16:30:21.034Z,100261.09
2019-01-12T16:32:49.454Z,100258.39
2019-01-12T16:35:18.435Z,100254.64
2019-01-12T16:37:46.932Z,100259.22
2019-01-12T16:40:18.117Z,100252.55
2019-01-12T16:42:46.605Z,100252.55
2019-01-12T16:45:15.179Z,100254.69
2019-01-12T16:47:43.662Z,100245.11
2019-01-12T16:50:12.111Z,100245.11
2019-01-12T16:52:40.606Z,100242.55
2019-01-12T16:55:11.691Z,100241.61
2019-01-12T16:57:40.187Z,100240.41
2019-01-12T17:00:18.208Z,100240.41
2019-01-12T17:02:46.707Z,100241.30
2019-01-12T17:05:15.216Z,100241.30
2019-01-12T17:07:43.777Z,100236.18
2019-01-12T17:10:20.008Z,100236.18
2019-01-12T17:12:48.489Z,100233.31
2019-01-12T17:15:18.970Z,100231.30
2019-01-12T17:17:47.454Z,100231.19
2019-01-12T17:20:21.286Z,100229.17
2019-01-12T17:22:50.647Z,100223.44
2019-01-12T17:25:26.751Z,100223.44
2019-01-12T17:27:55.382Z,100218.62
2019-01-12T17:30:25.478Z,100226.88
2019-01-12T17:32:53.898Z,100226.88
2019-01-12T17:35:23.656Z,100226.20
2019-01-12T17:37:52.143Z,100221.05
2019-01-12T17:40:20.592Z,100221.05
2019-01-12T17:42:49.014Z,100215.57
2019-01-12T17:45:22.526Z,100220.13
2019-01-12T17:47:51.020Z,100207.31
2019-01-12T17:50:21.401Z,100206.01
2019-01-12T17:52:49.831Z,100211.61
2019-01-12T17:55:20.113Z,100208.59
2019-01-12T17:57:48.610Z,100208.59
2019-01-12T18:00:38.784Z,100201.39
2019-01-12T18:03:08.638Z,100205.69
2019-01-12T18:05:37.160Z,100205.69
2019-01-12T18:08:05.740Z,100211.69
2019-01-12T18:10:34.190Z,100211.69
2019-01-12T18:13:02.617Z,100200.02
2019-01-12T18:15:31.076Z,100200.55
2019-01-12T18:17:59.570Z,100214.78
2019-01-12T18:20:28.008Z,100208.95
2019-01-12T18:22:56.497Z,100211.45
2019-01-12T18:25:24.939Z,100207.51
2019-01-12T18:27:53.363Z,100208.64
2019-01-12T18:30:24.620Z,100208.64
2019-01-12T18:32:53.053Z,100215.46
2019-01-12T18:35:21.560Z,100204.11
2019-01-12T18:37:50.044Z,100195.33
2019-01-12T18:40:20.132Z,100195.33
2019-01-12T18:42:48.613Z,100192.92
2019-01-12T18:45:19.452Z,100188.86
2019-01-12T18:47:47.897Z,100203.33
2019-01-12T18:50:19.123Z,100188.70
2019-01-12T18:52:47.638Z,100204.33
2019-01-12T18:55:16.187Z,100204.33
2019-01-12T18:57:44.703Z,100193.45
2019-01-12T19:00:27.906Z,100191.27
2019-01-12T19:02:56.467Z,100191.27
2019-01-12T19:05:25.266Z,100191.09
2019-01-12T19:07:53.863Z,100184.38
2019-01-12T19:10:22.422Z,100179.91
2019-01-12T19:12:50.932Z,100167.04
2019-01-12T19:15:24.927Z,100167.04
2019-01-12T19:17:53.374Z,100178.66
2019-01-12T19:20:21.867Z,100172.40
2019-01-12T19:22:50.387Z,100172.40
2019-01-12T19:25:18.806Z,100174.12
2019-01-12T19:27:47.247Z,100174.12
2019-01-12T19:30:20.386Z,100170.27
2019-01-12T19:32:48.909Z,100176.32
2019-01-12T19:35:17.471Z,100159.39
2019-01-12T19:37:46.061Z,100166.84
2019-01-12T19:40:16.617Z,100161.83
2019-01-12T19:42:45.135Z,100161.83
2019-01-12T19:45:15.297Z,100169.34
2019-01-12T19:47:43.893Z,100163.41
2019-01-12T19:50:21.071Z,100163.41
2019-01-12T19:52:49.576Z,100155.13
2019-01-12T19:55:18.058Z,100151.00
2019-01-12T19:57:46.577Z,100152.67
2019-01-12T20:00:20.550Z,100142.06
2019-01-12T20:02:49.135Z,100140.34
2019-01-12T20:05:17.622Z,100134.55
2019-01-12T20:07:46.069Z,100138.25
2019-01-12T20:10:16.232Z,100127.68
2019-01-12T20:12:44.679Z,100127.68
2019-01-12T20:15:15.913Z,100137.25
2019-01-12T20:17:44.425Z,100137.25
2019-01-12T20:20:14.802Z,100123.70
2019-01-12T20:22:43.393Z,100117.19
2019-01-12T20:25:14.821Z,100129.33
2019-01-12T20:27:43.272Z,100117.05
2019-01-12T20:30:20.712Z,100123.09
2019-01-12T20:33:12.097Z,100113.82
2019-01-12T20:35:49.116Z,100113.82
2019-01-12T20:38:26.492Z,100105.64
2019-01-12T20:41:06.797Z,100116.94
2019-01-12T20:43:41.081Z,100110.48
2019-01-12T20:46:21.310Z,100113.86
2019-01-12T20:48:55.524Z,100106.42
2019-01-12T20:51:35.762Z,100102.73
2019-01-12T20:54:19.437Z,100101.90
2019-01-12T20:57:06.069Z,100101.52
2019-01-12T21:00:00.521Z,100096.19
2019-01-12T21:02:53.610Z,100086.62
2019-01-12T21:05:34.398Z,100093.86
2019-01-12T21:08:07.367Z,100093.86
2019-01-12T21:10:39.087Z,100066.31
2019-01-12T21:13:30.462Z,100066.31
2019-01-12T21:16:02.298Z,100086.48
2019-01-12T21:18:30.739Z,100086.48
2019-01-12T21:20:59.152Z,100092.73
2019-01-12T21:23:27.673Z,100091.09
2019-01-12T21:25:56.102Z,100096.80
2019-01-12T21:28:24.546Z,100099.67
2019-01-12T21:30:52.965Z,100084.52
2019-01-12T21:33:21.508Z,100084.52
2019-01-12T21:35:49.915Z,100091.92
2019-01-12T21:38:18.328Z,100091.92
2019-01-12T21:40:46.774Z,100079.22
2019-01-12T21:43:15.205Z,100091.87
2019-01-12T21:45:43.716Z,100076.45
2019-01-12T21:48:12.123Z,100085.94
2019-01-12T21:50:40.569Z,100085.94
2019-01-12T21:53:08.987Z,100084.95
2019-01-12T21:55:37.434Z,100084.95
2019-01-12T21:58:05.920Z,100063.29
2019-01-12T22:00:34.366Z,100070.20
2019-01-12T22:03:02.789Z,100069.48
2019-01-12T22:05:31.248Z,100069.48
2019-01-12T22:07:59.658Z,100079.88
2019-01-12T22:10:28.109Z,100079.88
2019-01-12T22:12:56.525Z,100082.42
2019-01-12T22:15:24.978Z,100082.42
2019-01-12T22:17:53.395Z,100075.76
2019-01-12T22:20:21.842Z,100077.98
2019-01-12T22:22:50.279Z,100083.92
2019-01-12T22:25:18.725Z,100083.92
2019-01-12T22:27:47.155Z,100094.69
2019-01-12T22:30:17.714Z,100103.86
2019-01-12T22:32:46.628Z,100096.88
2019-01-12T22:35:15.220Z,100100.48
2019-01-12T22:37:43.747Z,100089.88
2019-01-12T22:40:20.053Z,100098.89
2019-01-12T22:42:48.480Z,100082.15
2019-01-12T22:45:17.040Z,100082.15
2019-01-12T22:47:45.553Z,100089.48
2019-01-12T22:50:15.820Z,100091.16
2019-01-12T22:52:44.418Z,100086.48
2019-01-12T22:55:13.889Z,100099.22
2019-01-12T22:57:42.338Z,100103.23
2019-01-12T23:00:35.310Z,100083.09
2019-01-12T23:03:03.831Z,100097.92
2019-01-12T23:05:32.270Z,100097.92
2019-01-12T23:08:00.726Z,100102.55
2019-01-12T23:10:29.229Z,100089.07
2019-01-12T23:12:57.828Z,100079.03
2019-01-12T23:15:26.339Z,100072.31
2019-01-12T23:17:54.850Z,100072.31
2019-01-12T23:20:23.360Z,100081.55
2019-01-12T23:22:51.828Z,100084.30
2019-01-12T23:25:20.338Z,100089.70
2019-01-12T23:27:48.809Z,100089.70
2019-01-12T23:30:17.469Z,100103.80
2019-01-12T23:32:46.002Z,100098.71
2019-01-12T23:35:14.573Z,100098.71
2019-01-12T23:37:43.028Z,100103.29
2019-01-12T23:40:14.297Z,100097.19
2019-01-12T23:42:42.893Z,100088.77
2019-01-12T23:45:15.086Z,100083.24
2019-01-12T23:47:43.612Z,100083.24
2019-01-12T23:50:13.913Z,100083.93
2019-01-12T23:52:42.579Z,100068.06
2019-01-12T23:55:11.335Z,100078.52
2019-01-12T23:57:39.870Z,100096.38
